Daniel K — PBIR — position and weather

sailwx.info

Track history (hours):
 
Tides and Currents Weather Stations Pressure Air Temp Water Temp Dewpoint Dewpoint Depression Visibility Wind Speed Wind Dir Waves Ship Positions

Daniel K

Last reported at 2018-Apr-21 08:10 UTC. Time now 2018-Apr-21 19:27 UTC.
Position N 51°25' W 004°05'.

Length 90 m; draft 4.1 m.

Type: Cargo ship. MMSI: 244336000.

Date/timePositionNaut miles runAvg speedWind from/ knotsBaromVisibWave heightAir tempDewpointWater temp
2018-Apr-21 08:10N 51°25' W 004°05'211.7
2018-Apr-21 07:57N 51°26' W 004°09'511.9
2018-Apr-21 07:30N 51°27' W 004°17'611.9
2018-Apr-21 07:00N 51°28' W 004°27'1012.3
2018-Apr-21 06:13N 51°30' W 004°42'312.3
2018-Apr-21 05:57N 51°30' W 004°47'511.1
2018-Apr-21 05:30N 51°31' W 004°55'611.7
2018-Apr-21 05:00N 51°32' W 005°04'611.9
2018-Apr-21 04:31N 51°33' W 005°14'611.8
2018-Apr-21 04:00N 51°34' W 005°23'611.1
2018-Apr-21 03:31N 51°36' W 005°32'510.0
2018-Apr-21 03:01N 51°37' W 005°39'5 9.7
2018-Apr-21 02:30N 51°38' W 005°47'19 9.7
2018-Apr-21 00:33N 51°47' W 006°14'010.2
2018-Apr-21 00:30N 51°47' W 006°15'510.1
2018-Apr-21 00:00N 51°50' W 006°21'510.3
2018-Apr-20 23:30N 51°53' W 006°28'510.4
2018-Apr-20 22:59N 51°56' W 006°35'510.5
2018-Apr-20 22:30N 51°59' W 006°41'611.0
2018-Apr-20 22:00N 52°03' W 006°49'611.5
2018-Apr-20 21:30N 52°06' W 006°56'5 9.1
2018-Apr-20 21:00N 52°10' W 006°57'4 8.8
2018-Apr-20 20:30N 52°15' W 006°59'3 6.2
2018-Apr-20 20:00N 52°17' W 007°01'4 7.5
2018-Apr-20 19:30N 52°21' W 006°60'2 1.3
2018-Apr-20 17:46N 52°23' W 006°58'0 0.0
2018-Apr-20 17:16N 52°23' W 006°58'0 0.0
2018-Apr-20 16:46N 52°23' W 006°58'0 0.0
2018-Apr-20 15:49N 52°23' W 006°58'0 0.0
2018-Apr-20 15:19N 52°23' W 006°58'0 0.0
2018-Apr-20 14:58N 52°23' W 006°58'0 0.0
2018-Apr-20 13:55N 52°23' W 006°58'0 0.0
2018-Apr-20 12:52N 52°23' W 006°58'0 0.0
2018-Apr-20 12:28N 52°23' W 006°58'0 0.0
2018-Apr-20 11:52N 52°23' W 006°58'0 0.0
2018-Apr-20 11:28N 52°23' W 006°58'0 0.0
2018-Apr-20 10:58N 52°23' W 006°58'0 0.0
2018-Apr-20 10:25N 52°23' W 006°58'0 0.0
2018-Apr-20 09:52N 52°23' W 006°58'0 0.0
2018-Apr-20 09:28N 52°23' W 006°58'0 0.0
2018-Apr-20 08:58N 52°23' W 006°58'0 0.0
2018-Apr-20 08:28N 52°23' W 006°58'0 0.0
2018-Apr-20 07:58N 52°23' W 006°58'0 0.0
2018-Apr-20 07:28N 52°23' W 006°58'0 0.0
2018-Apr-20 06:58N 52°23' W 006°58'0 0.0
2018-Apr-20 06:28N 52°23' W 006°58'0 0.0
2018-Apr-20 05:58N 52°23' W 006°58'0 0.0
2018-Apr-20 05:28N 52°23' W 006°58'0 0.0
2018-Apr-20 04:58N 52°23' W 006°58'0 0.0
2018-Apr-20 04:28N 52°23' W 006°58'0 0.0
2018-Apr-20 03:58N 52°23' W 006°58'0 0.0
2018-Apr-20 03:28N 52°23' W 006°58'0 0.0
2018-Apr-20 02:58N 52°23' W 006°58'0 0.0
2018-Apr-20 02:28N 52°23' W 006°58'0 0.0
2018-Apr-20 01:58N 52°23' W 006°58'0 0.0
2018-Apr-19 23:22N 52°23' W 006°58'0 0.0
2018-Apr-19 21:45N 52°23' W 006°58'0 0.0
2018-Apr-19 21:30N 52°23' W 006°58'0 0.0
2018-Apr-19 20:59N 52°23' W 006°58'3 4.1
2018-Apr-19 20:18N 52°20' W 006°60'2 6.9
2018-Apr-19 19:59N 52°18' W 007°00'2 4.1
2018-Apr-19 19:30N 52°16' W 006°59'1 2.5
2018-Apr-19 18:57N 52°15' W 006°60'4 9.5
2018-Apr-19 18:30N 52°11' W 006°56'3 5.5
2018-Apr-19 18:00N 52°09' W 006°58'0 0.0
2018-Apr-19 17:30N 52°09' W 006°58'0 0.0
2018-Apr-19 17:00N 52°09' W 006°58'0 0.0
2018-Apr-19 16:30N 52°09' W 006°58'0 0.0
2018-Apr-19 16:00N 52°09' W 006°58'0 0.1
2018-Apr-19 15:18N 52°09' W 006°58'0 0.1
2018-Apr-19 15:00N 52°09' W 006°58'0 0.0
2018-Apr-19 14:30N 52°09' W 006°58'0 0.0
2018-Apr-19 14:00N 52°09' W 006°58'0 0.0
2018-Apr-19 13:30N 52°09' W 006°58'0 0.1
2018-Apr-19 13:00N 52°09' W 006°58'0 0.0
2018-Apr-19 12:30N 52°09' W 006°58'0 0.0
2018-Apr-19 12:00N 52°09' W 006°58'0 0.1
2018-Apr-19 11:30N 52°09' W 006°58'0 0.1
2018-Apr-19 11:00N 52°09' W 006°58'0 0.2
2018-Apr-19 10:30N 52°09' W 006°58'0 0.3
2018-Apr-19 10:00N 52°09' W 006°58'0 0.0
2018-Apr-19 09:30N 52°09' W 006°58'0 0.1
2018-Apr-19 09:00N 52°09' W 006°58'0 0.0
2018-Apr-19 08:30N 52°09' W 006°58'0 0.0
2018-Apr-19 08:00N 52°09' W 006°58'0 0.0
2018-Apr-19 07:30N 52°09' W 006°58'0 0.0
2018-Apr-19 07:00N 52°09' W 006°58'0 0.0
2018-Apr-19 06:30N 52°09' W 006°58'0 0.0
2018-Apr-19 06:00N 52°09' W 006°58'0 0.0
2018-Apr-19 05:30N 52°09' W 006°58'0 0.0
2018-Apr-19 05:00N 52°09' W 006°58'0 0.0
2018-Apr-19 04:30N 52°09' W 006°58'0 0.0
2018-Apr-19 04:00N 52°09' W 006°58'0 0.0
2018-Apr-19 03:30N 52°09' W 006°58'0 0.1
2018-Apr-19 02:06N 52°09' W 006°58'0 0.1
2018-Apr-19 02:00N 52°09' W 006°58'0 0.2
2018-Apr-19 01:30N 52°09' W 006°58'0 0.1
2018-Apr-19 01:00N 52°09' W 006°58'0 0.0
2018-Apr-19 00:30N 52°09' W 006°58'0 0.0
2018-Apr-19 00:00N 52°09' W 006°58'0 0.0
2018-Apr-18 23:30N 52°09' W 006°58'1 1.9
2018-Apr-18 23:00N 52°08' W 006°58'5 9.6
2018-Apr-18 22:30N 52°03' W 006°56'610.8
2018-Apr-18 21:55N 51°57' W 006°52'163 6.9
2018-Apr-17 22:08N 50°06' W 003°41'1 6.9
2018-Apr-17 22:00N 50°07' W 003°40'3 6.9
2018-Apr-17 21:30N 50°07' W 003°35'3 6.5
2018-Apr-17 21:00N 50°08' W 003°30'3 6.7
2018-Apr-17 20:30N 50°08' W 003°25'3 6.2
2018-Apr-17 20:00N 50°09' W 003°20'3 6.0
2018-Apr-17 19:30N 50°09' W 003°15'3 6.1
2018-Apr-17 19:00N 50°09' W 003°10'3 6.1
2018-Apr-17 18:30N 50°09' W 003°06'3 6.3
2018-Apr-17 18:00N 50°10' W 003°01'4 7.0
2018-Apr-17 17:30N 50°11' W 002°56'4 8.0
2018-Apr-17 17:00N 50°11' W 002°49'73 9.7
2018-Apr-17 09:29N 50°25' W 000°57'3 5.6
2018-Apr-17 09:00N 50°25' W 000°53'3 5.8
2018-Apr-17 08:30N 50°26' W 000°49'3 6.2
2018-Apr-17 08:00N 50°26' W 000°44'4 7.2
2018-Apr-17 07:25N 50°27' W 000°37'1810.5
2018-Apr-17 05:40N 50°30' W 000°09'210.8
2018-Apr-17 05:30N 50°31' W 000°06'510.9
2018-Apr-17 05:00N 50°32' E 000°02'611.2
2018-Apr-17 04:30N 50°34' E 000°11'611.4
2018-Apr-17 04:00N 50°35' E 000°19'611.3
2018-Apr-17 03:30N 50°37' E 000°28'510.7
2018-Apr-17 03:00N 50°39' E 000°36'510.4
2018-Apr-17 02:30N 50°42' E 000°42'5 9.9
2018-Apr-17 02:00N 50°45' E 000°49'5 9.4
2018-Apr-17 01:30N 50°47' E 000°55'4 8.9
2018-Apr-17 01:00N 50°50' E 001°01'5 8.3
2018-Apr-17 00:23N 50°53' E 001°07'4 8.2
2018-Apr-16 23:56N 50°56' E 001°11'13 8.6
2018-Apr-16 22:23N 51°04' E 001°28'410.9
2018-Apr-16 22:00N 51°06' E 001°33'612.0
2018-Apr-16 21:30N 51°10' E 001°40'612.6
2018-Apr-16 21:00N 51°15' E 001°46'612.8
2018-Apr-16 20:30N 51°21' E 001°52'612.6
2018-Apr-16 20:00N 51°26' E 001°57'612.0
2018-Apr-16 19:30N 51°31' E 002°03'611.3
2018-Apr-16 19:00N 51°35' E 002°09'510.6
2018-Apr-16 18:30N 51°39' E 002°15'510.1
2018-Apr-16 18:00N 51°43' E 002°20'5 9.4
2018-Apr-16 17:30N 51°46' E 002°25'5 9.0
2018-Apr-16 16:57N 51°50' E 002°30'4 8.6
2018-Apr-16 16:28N 51°53' E 002°35'124 9.3
2018-Apr-16 03:08N 53°30' E 004°44'2 9.8
2018-Apr-16 02:58N 53°30' E 004°47'510.3
2018-Apr-16 02:30N 53°32' E 004°54'511.0
2018-Apr-16 02:00N 53°33' E 005°03'10310.0
2018-Apr-15 15:43N 54°01' E 007°50'311.2
2018-Apr-15 15:26N 54°01' E 007°56'611.4
2018-Apr-15 14:54N 54°01' E 008°06'510.9
2018-Apr-15 14:27N 54°00' E 008°14'614.0
2018-Apr-15 14:00N 53°59' E 008°25'713.4
2018-Apr-15 13:29N 53°58' E 008°36'611.5
2018-Apr-15 13:00N 53°53' E 008°42'5 9.9
2018-Apr-15 12:30N 53°51' E 008°49'5 9.3
2018-Apr-15 12:01N 53°51' E 008°57'5 8.9
2018-Apr-15 11:30N 53°53' E 009°04'3 5.8
2018-Apr-15 11:00N 53°54' E 009°09'0 0.1
2018-Apr-15 10:30N 53°54' E 009°09'3 6.4
2018-Apr-15 10:00N 53°56' E 009°13'4 8.5
2018-Apr-15 09:30N 53°59' E 009°17'4 7.3
2018-Apr-15 09:01N 54°03' E 009°18'5 8.2
2018-Apr-15 08:27N 54°07' E 009°20'2 4.1
2018-Apr-15 08:00N 54°09' E 009°22'0 0.0
2018-Apr-15 07:30N 54°09' E 009°22'0 0.9
2018-Apr-15 07:00N 54°09' E 009°22'3 6.2
2018-Apr-15 06:30N 54°10' E 009°27'4 8.4
2018-Apr-15 06:00N 54°12' E 009°34'4 7.7
2018-Apr-15 05:30N 54°15' E 009°37'2 4.9
2018-Apr-15 05:00N 54°17' E 009°39'4 7.0
2018-Apr-15 04:30N 54°20' E 009°44'4 8.0
2018-Apr-15 04:00N 54°22' E 009°50'38 5.8
2018-Apr-14 21:26N 54°36' E 010°51'511.1
2018-Apr-14 21:00N 54°36' E 010°59'611.2
2018-Apr-14 20:30N 54°36' E 011°08'611.5
2018-Apr-14 20:00N 54°34' E 011°18'611.0
2018-Apr-14 19:30N 54°32' E 011°26'511.0
2018-Apr-14 19:00N 54°30' E 011°35'611.0
2018-Apr-14 18:30N 54°28' E 011°44'510.6
2018-Apr-14 18:01N 54°27' E 011°53'510.3
2018-Apr-14 17:30N 54°27' E 012°02'92 9.5
2018-Apr-14 07:47N 54°55' E 014°33'310.2
2018-Apr-14 07:28N 54°55' E 014°39'511.3
2018-Apr-14 07:00N 54°56' E 014°48'612.0
2018-Apr-14 06:30N 54°56' E 014°58'510.0
2018-Apr-14 06:00N 54°56' E 015°07'5 9.9
2018-Apr-14 05:30N 54°57' E 015°15'510.0
2018-Apr-14 04:59N 54°59' E 015°24'510.1
2018-Apr-14 04:30N 54°60' E 015°32'610.0
2018-Apr-14 03:53N 55°01' E 015°43'410.0
2018-Apr-14 03:27N 55°02' E 015°50'  
2018-Apr-11 17:17N 55°05' E 018°13'3 9.3
2018-Apr-11 17:00N 55°04' E 018°09'  
Track history (hours):
 
Tides and Currents Weather Stations Pressure Air Temp Water Temp Dewpoint Dewpoint Depression Visibility Wind Speed Wind Dir Waves Ship Positions

Daniel K

Last reported at 2018-Apr-21 08:10 UTC. Time now 2018-Apr-21 19:27 UTC.
Position N 51°25' W 004°05'.

Length 90 m; draft 4.1 m.

Type: Cargo ship. MMSI: 244336000.

Date/timePositionNaut miles runAvg speedWind from/ knotsBaromVisibWave heightAir tempDewpointWater temp
2018-Apr-21 08:10N 51°25' W 004°05'211.7
2018-Apr-21 07:57N 51°26' W 004°09'511.9
2018-Apr-21 07:30N 51°27' W 004°17'611.9
2018-Apr-21 07:00N 51°28' W 004°27'1012.3
2018-Apr-21 06:13N 51°30' W 004°42'312.3
2018-Apr-21 05:57N 51°30' W 004°47'511.1
2018-Apr-21 05:30N 51°31' W 004°55'611.7
2018-Apr-21 05:00N 51°32' W 005°04'611.9
2018-Apr-21 04:31N 51°33' W 005°14'611.8
2018-Apr-21 04:00N 51°34' W 005°23'611.1
2018-Apr-21 03:31N 51°36' W 005°32'510.0
2018-Apr-21 03:01N 51°37' W 005°39'5 9.7
2018-Apr-21 02:30N 51°38' W 005°47'19 9.7
2018-Apr-21 00:33N 51°47' W 006°14'010.2
2018-Apr-21 00:30N 51°47' W 006°15'510.1
2018-Apr-21 00:00N 51°50' W 006°21'510.3
2018-Apr-20 23:30N 51°53' W 006°28'510.4
2018-Apr-20 22:59N 51°56' W 006°35'510.5
2018-Apr-20 22:30N 51°59' W 006°41'611.0
2018-Apr-20 22:00N 52°03' W 006°49'611.5
2018-Apr-20 21:30N 52°06' W 006°56'5 9.1
2018-Apr-20 21:00N 52°10' W 006°57'4 8.8
2018-Apr-20 20:30N 52°15' W 006°59'3 6.2
2018-Apr-20 20:00N 52°17' W 007°01'4 7.5
2018-Apr-20 19:30N 52°21' W 006°60'2 1.3
2018-Apr-20 17:46N 52°23' W 006°58'0 0.0
2018-Apr-20 17:16N 52°23' W 006°58'0 0.0
2018-Apr-20 16:46N 52°23' W 006°58'0 0.0
2018-Apr-20 15:49N 52°23' W 006°58'0 0.0
2018-Apr-20 15:19N 52°23' W 006°58'0 0.0
2018-Apr-20 14:58N 52°23' W 006°58'0 0.0
2018-Apr-20 13:55N 52°23' W 006°58'0 0.0
2018-Apr-20 12:52N 52°23' W 006°58'0 0.0
2018-Apr-20 12:28N 52°23' W 006°58'0 0.0
2018-Apr-20 11:52N 52°23' W 006°58'0 0.0
2018-Apr-20 11:28N 52°23' W 006°58'0 0.0
2018-Apr-20 10:58N 52°23' W 006°58'0 0.0
2018-Apr-20 10:25N 52°23' W 006°58'0 0.0
2018-Apr-20 09:52N 52°23' W 006°58'0 0.0
2018-Apr-20 09:28N 52°23' W 006°58'0 0.0
2018-Apr-20 08:58N 52°23' W 006°58'0 0.0
2018-Apr-20 08:28N 52°23' W 006°58'0 0.0
2018-Apr-20 07:58N 52°23' W 006°58'0 0.0
2018-Apr-20 07:28N 52°23' W 006°58'0 0.0
2018-Apr-20 06:58N 52°23' W 006°58'0 0.0
2018-Apr-20 06:28N 52°23' W 006°58'0 0.0
2018-Apr-20 05:58N 52°23' W 006°58'0 0.0
2018-Apr-20 05:28N 52°23' W 006°58'0 0.0
2018-Apr-20 04:58N 52°23' W 006°58'0 0.0
2018-Apr-20 04:28N 52°23' W 006°58'0 0.0
2018-Apr-20 03:58N 52°23' W 006°58'0 0.0
2018-Apr-20 03:28N 52°23' W 006°58'0 0.0
2018-Apr-20 02:58N 52°23' W 006°58'0 0.0
2018-Apr-20 02:28N 52°23' W 006°58'0 0.0
2018-Apr-20 01:58N 52°23' W 006°58'0 0.0
2018-Apr-19 23:22N 52°23' W 006°58'0 0.0
2018-Apr-19 21:45N 52°23' W 006°58'0 0.0
2018-Apr-19 21:30N 52°23' W 006°58'0 0.0
2018-Apr-19 20:59N 52°23' W 006°58'3 4.1
2018-Apr-19 20:18N 52°20' W 006°60'2 6.9
2018-Apr-19 19:59N 52°18' W 007°00'2 4.1
2018-Apr-19 19:30N 52°16' W 006°59'1 2.5
2018-Apr-19 18:57N 52°15' W 006°60'4 9.5
2018-Apr-19 18:30N 52°11' W 006°56'3 5.5
2018-Apr-19 18:00N 52°09' W 006°58'0 0.0
2018-Apr-19 17:30N 52°09' W 006°58'0 0.0
2018-Apr-19 17:00N 52°09' W 006°58'0 0.0
2018-Apr-19 16:30N 52°09' W 006°58'0 0.0
2018-Apr-19 16:00N 52°09' W 006°58'0 0.1
2018-Apr-19 15:18N 52°09' W 006°58'0 0.1
2018-Apr-19 15:00N 52°09' W 006°58'0 0.0
2018-Apr-19 14:30N 52°09' W 006°58'0 0.0
2018-Apr-19 14:00N 52°09' W 006°58'0 0.0
2018-Apr-19 13:30N 52°09' W 006°58'0 0.1
2018-Apr-19 13:00N 52°09' W 006°58'0 0.0
2018-Apr-19 12:30N 52°09' W 006°58'0 0.0
2018-Apr-19 12:00N 52°09' W 006°58'0 0.1
2018-Apr-19 11:30N 52°09' W 006°58'0 0.1
2018-Apr-19 11:00N 52°09' W 006°58'0 0.2
2018-Apr-19 10:30N 52°09' W 006°58'0 0.3
2018-Apr-19 10:00N 52°09' W 006°58'0 0.0
2018-Apr-19 09:30N 52°09' W 006°58'0 0.1
2018-Apr-19 09:00N 52°09' W 006°58'0 0.0
2018-Apr-19 08:30N 52°09' W 006°58'0 0.0
2018-Apr-19 08:00N 52°09' W 006°58'0 0.0
2018-Apr-19 07:30N 52°09' W 006°58'0 0.0
2018-Apr-19 07:00N 52°09' W 006°58'0 0.0
2018-Apr-19 06:30N 52°09' W 006°58'0 0.0
2018-Apr-19 06:00N 52°09' W 006°58'0 0.0
2018-Apr-19 05:30N 52°09' W 006°58'0 0.0
2018-Apr-19 05:00N 52°09' W 006°58'0 0.0
2018-Apr-19 04:30N 52°09' W 006°58'0 0.0
2018-Apr-19 04:00N 52°09' W 006°58'0 0.0
2018-Apr-19 03:30N 52°09' W 006°58'0 0.1
2018-Apr-19 02:06N 52°09' W 006°58'0 0.1
2018-Apr-19 02:00N 52°09' W 006°58'0 0.2
2018-Apr-19 01:30N 52°09' W 006°58'0 0.1
2018-Apr-19 01:00N 52°09' W 006°58'0 0.0
2018-Apr-19 00:30N 52°09' W 006°58'0 0.0
2018-Apr-19 00:00N 52°09' W 006°58'0 0.0
2018-Apr-18 23:30N 52°09' W 006°58'1 1.9
2018-Apr-18 23:00N 52°08' W 006°58'5 9.6
2018-Apr-18 22:30N 52°03' W 006°56'610.8
2018-Apr-18 21:55N 51°57' W 006°52'163 6.9
2018-Apr-17 22:08N 50°06' W 003°41'1 6.9
2018-Apr-17 22:00N 50°07' W 003°40'3 6.9
2018-Apr-17 21:30N 50°07' W 003°35'3 6.5
2018-Apr-17 21:00N 50°08' W 003°30'3 6.7
2018-Apr-17 20:30N 50°08' W 003°25'3 6.2
2018-Apr-17 20:00N 50°09' W 003°20'3 6.0
2018-Apr-17 19:30N 50°09' W 003°15'3 6.1
2018-Apr-17 19:00N 50°09' W 003°10'3 6.1
2018-Apr-17 18:30N 50°09' W 003°06'3 6.3
2018-Apr-17 18:00N 50°10' W 003°01'4 7.0
2018-Apr-17 17:30N 50°11' W 002°56'4 8.0
2018-Apr-17 17:00N 50°11' W 002°49'73 9.7
2018-Apr-17 09:29N 50°25' W 000°57'3 5.6
2018-Apr-17 09:00N 50°25' W 000°53'3 5.8
2018-Apr-17 08:30N 50°26' W 000°49'3 6.2
2018-Apr-17 08:00N 50°26' W 000°44'4 7.2
2018-Apr-17 07:25N 50°27' W 000°37'1810.5
2018-Apr-17 05:40N 50°30' W 000°09'210.8
2018-Apr-17 05:30N 50°31' W 000°06'510.9
2018-Apr-17 05:00N 50°32' E 000°02'611.2
2018-Apr-17 04:30N 50°34' E 000°11'611.4
2018-Apr-17 04:00N 50°35' E 000°19'611.3
2018-Apr-17 03:30N 50°37' E 000°28'510.7
2018-Apr-17 03:00N 50°39' E 000°36'510.4
2018-Apr-17 02:30N 50°42' E 000°42'5 9.9
2018-Apr-17 02:00N 50°45' E 000°49'5 9.4
2018-Apr-17 01:30N 50°47' E 000°55'4 8.9
2018-Apr-17 01:00N 50°50' E 001°01'5 8.3
2018-Apr-17 00:23N 50°53' E 001°07'4 8.2
2018-Apr-16 23:56N 50°56' E 001°11'13 8.6
2018-Apr-16 22:23N 51°04' E 001°28'410.9
2018-Apr-16 22:00N 51°06' E 001°33'612.0
2018-Apr-16 21:30N 51°10' E 001°40'612.6
2018-Apr-16 21:00N 51°15' E 001°46'612.8
2018-Apr-16 20:30N 51°21' E 001°52'612.6
2018-Apr-16 20:00N 51°26' E 001°57'612.0
2018-Apr-16 19:30N 51°31' E 002°03'611.3
2018-Apr-16 19:00N 51°35' E 002°09'510.6
2018-Apr-16 18:30N 51°39' E 002°15'510.1
2018-Apr-16 18:00N 51°43' E 002°20'5 9.4
2018-Apr-16 17:30N 51°46' E 002°25'5 9.0
2018-Apr-16 16:57N 51°50' E 002°30'4 8.6
2018-Apr-16 16:28N 51°53' E 002°35'124 9.3
2018-Apr-16 03:08N 53°30' E 004°44'2 9.8
2018-Apr-16 02:58N 53°30' E 004°47'510.3
2018-Apr-16 02:30N 53°32' E 004°54'511.0
2018-Apr-16 02:00N 53°33' E 005°03'10310.0
2018-Apr-15 15:43N 54°01' E 007°50'311.2
2018-Apr-15 15:26N 54°01' E 007°56'611.4
2018-Apr-15 14:54N 54°01' E 008°06'510.9
2018-Apr-15 14:27N 54°00' E 008°14'614.0
2018-Apr-15 14:00N 53°59' E 008°25'713.4
2018-Apr-15 13:29N 53°58' E 008°36'611.5
2018-Apr-15 13:00N 53°53' E 008°42'5 9.9
2018-Apr-15 12:30N 53°51' E 008°49'5 9.3
2018-Apr-15 12:01N 53°51' E 008°57'5 8.9
2018-Apr-15 11:30N 53°53' E 009°04'3 5.8
2018-Apr-15 11:00N 53°54' E 009°09'0 0.1
2018-Apr-15 10:30N 53°54' E 009°09'3 6.4
2018-Apr-15 10:00N 53°56' E 009°13'4 8.5
2018-Apr-15 09:30N 53°59' E 009°17'4 7.3
2018-Apr-15 09:01N 54°03' E 009°18'5 8.2
2018-Apr-15 08:27N 54°07' E 009°20'2 4.1
2018-Apr-15 08:00N 54°09' E 009°22'0 0.0
2018-Apr-15 07:30N 54°09' E 009°22'0 0.9
2018-Apr-15 07:00N 54°09' E 009°22'3 6.2
2018-Apr-15 06:30N 54°10' E 009°27'4 8.4
2018-Apr-15 06:00N 54°12' E 009°34'4 7.7
2018-Apr-15 05:30N 54°15' E 009°37'2 4.9
2018-Apr-15 05:00N 54°17' E 009°39'4 7.0
2018-Apr-15 04:30N 54°20' E 009°44'4 8.0
2018-Apr-15 04:00N 54°22' E 009°50'38 5.8
2018-Apr-14 21:26N 54°36' E 010°51'511.1
2018-Apr-14 21:00N 54°36' E 010°59'611.2
2018-Apr-14 20:30N 54°36' E 011°08'611.5
2018-Apr-14 20:00N 54°34' E 011°18'611.0
2018-Apr-14 19:30N 54°32' E 011°26'511.0
2018-Apr-14 19:00N 54°30' E 011°35'611.0
2018-Apr-14 18:30N 54°28' E 011°44'510.6
2018-Apr-14 18:01N 54°27' E 011°53'510.3
2018-Apr-14 17:30N 54°27' E 012°02'92 9.5
2018-Apr-14 07:47N 54°55' E 014°33'310.2
2018-Apr-14 07:28N 54°55' E 014°39'511.3
2018-Apr-14 07:00N 54°56' E 014°48'612.0
2018-Apr-14 06:30N 54°56' E 014°58'510.0
2018-Apr-14 06:00N 54°56' E 015°07'5 9.9
2018-Apr-14 05:30N 54°57' E 015°15'510.0
2018-Apr-14 04:59N 54°59' E 015°24'510.1
2018-Apr-14 04:30N 54°60' E 015°32'610.0
2018-Apr-14 03:53N 55°01' E 015°43'410.0
2018-Apr-14 03:27N 55°02' E 015°50'  
2018-Apr-11 17:17N 55°05' E 018°13'3 9.3
2018-Apr-11 17:00N 55°04' E 018°09'  

Dump ship's entire track history